Time;durP1;ratioP1;P1;durP2;ratioP2;P2;SDS_P1;SDS_P2;PMS_P1;PMS_P2;Temp;Humidity;BMP_temperature;BMP_pressure;BME280_temperature;BME280_humidity;BME280_pressure;Samples;Min_cycle;Max_cycle;Signal;HPM_P1;HPM_P2
2023/01/28 00:01:40;;;;;;;28.48;13.88;;;4.00;99.90;;;;;;5092025;28;20051;-59
2023/01/28 00:04:07;;;;;;;28.33;14.43;;;4.00;99.90;;;;;;5115279;27;20043;-59
2023/01/28 00:06:35;;;;;;;28.52;14.82;;;4.00;99.90;;;;;;5110941;27;20048;-61
2023/01/28 00:09:03;;;;;;;29.05;14.90;;;4.00;99.90;;;;;;5110140;28;20422;-59
2023/01/28 00:11:30;;;;;;;27.42;14.90;;;4.10;99.90;;;;;;5104500;27;20106;-59
2023/01/28 00:13:58;;;;;;;26.35;14.15;;;4.00;99.90;;;;;;5111266;28;20059;-60
2023/01/28 00:16:26;;;;;;;24.15;13.52;;;4.10;99.90;;;;;;5129735;28;20061;-59
2023/01/28 00:18:54;;;;;;;26.75;13.32;;;4.10;99.90;;;;;;5116851;28;20059;-59
2023/01/28 00:21:22;;;;;;;23.42;11.15;;;4.10;99.90;;;;;;5109753;28;20066;-60
2023/01/28 00:23:53;;;;;;;24.90;10.38;;;4.10;99.90;;;;;;5113133;28;20591;-59
2023/01/28 00:26:22;;;;;;;17.42;9.32;;;4.10;99.90;;;;;;5118240;28;20040;-57
2023/01/28 00:28:50;;;;;;;20.70;10.13;;;4.10;99.90;;;;;;5102354;28;20047;-59
2023/01/28 00:31:20;;;;;;;19.38;9.80;;;4.10;99.90;;;;;;5070169;28;20063;-60
2023/01/28 00:33:49;;;;;;;21.80;11.13;;;4.10;99.90;;;;;;5072422;28;20059;-59
2023/01/28 00:36:18;;;;;;;21.07;10.07;;;4.10;99.90;;;;;;5072644;28;20052;-62
2023/01/28 00:38:53;;;;;;;20.45;9.38;;;4.10;99.90;;;;;;5080442;28;20048;-62
2023/01/28 00:41:23;;;;;;;20.73;10.35;;;4.10;99.90;;;;;;5083792;28;20495;-61
2023/01/28 00:43:52;;;;;;;20.65;11.07;;;4.10;99.90;;;;;;5068889;28;20047;-58
2023/01/28 00:46:21;;;;;;;23.83;11.10;;;4.10;99.90;;;;;;5089661;28;20044;-59
2023/01/28 00:48:49;;;;;;;22.38;10.77;;;4.10;99.90;;;;;;5075468;28;20392;-59
2023/01/28 00:51:18;;;;;;;25.02;11.52;;;4.10;99.90;;;;;;5069338;28;20059;-62
2023/01/28 00:53:48;;;;;;;24.17;11.23;;;4.10;99.90;;;;;;5071671;28;20075;-61
2023/01/28 00:56:18;;;;;;;27.05;12.57;;;4.10;99.90;;;;;;5069069;28;20036;-62
2023/01/28 00:58:47;;;;;;;22.48;11.90;;;4.10;99.90;;;;;;5072727;28;20055;-60
2023/01/28 01:01:23;;;;;;;25.00;12.20;;;4.10;99.90;;;;;;5088082;28;20048;-59
2023/01/28 01:04:10;;;;;;;28.25;12.65;;;4.20;99.90;;;;;;5071821;28;20510;-58
2023/01/28 01:06:39;;;;;;;29.73;14.23;;;4.10;99.90;;;;;;5045371;28;20053;-58
2023/01/28 01:09:10;;;;;;;24.35;12.07;;;4.20;99.90;;;;;;5078668;28;20399;-59
2023/01/28 01:11:40;;;;;;;28.02;13.50;;;4.20;99.90;;;;;;5081853;28;20045;-63
2023/01/28 01:14:09;;;;;;;25.58;12.10;;;4.10;99.90;;;;;;5073162;28;20048;-61
2023/01/28 01:16:39;;;;;;;23.33;10.98;;;4.20;99.90;;;;;;5091288;28;20430;-60
2023/01/28 01:19:08;;;;;;;22.38;11.55;;;4.10;99.90;;;;;;5091640;28;20394;-61
2023/01/28 01:21:35;;;;;;;26.70;12.93;;;4.10;99.90;;;;;;5093156;28;20319;-59
2023/01/28 01:24:03;;;;;;;24.80;11.55;;;4.20;99.90;;;;;;5078423;28;20051;-62
2023/01/28 01:26:31;;;;;;;25.02;12.30;;;4.10;99.90;;;;;;5089189;28;20051;-61
2023/01/28 01:28:59;;;;;;;22.98;11.95;;;4.10;99.90;;;;;;5084957;28;20052;-63
2023/01/28 01:31:26;;;;;;;22.55;10.93;;;4.10;99.90;;;;;;5113011;28;20052;-62
2023/01/28 01:33:54;;;;;;;21.45;11.05;;;4.20;99.90;;;;;;5116451;27;20039;-61
2023/01/28 01:36:22;;;;;;;21.45;10.52;;;4.20;99.90;;;;;;5115610;27;20062;-65
2023/01/28 01:38:54;;;;;;;22.80;10.73;;;4.10;99.90;;;;;;5112711;28;20040;-63
2023/01/28 01:41:33;;;;;;;24.70;11.13;;;4.20;99.90;;;;;;5112953;28;20047;-63
2023/01/28 01:44:02;;;;;;;22.88;10.02;;;4.10;99.90;;;;;;5113621;27;20044;-62
2023/01/28 01:46:46;;;;;;;22.08;10.07;;;4.20;99.90;;;;;;5133603;27;20092;-63
2023/01/28 01:49:20;;;;;;;23.77;10.18;;;4.20;99.90;;;;;;5099064;28;20066;-62
2023/01/28 01:51:54;;;;;;;20.67;11.05;;;4.20;99.90;;;;;;5094482;28;20047;-64
2023/01/28 01:54:24;;;;;;;18.00;9.48;;;4.20;99.90;;;;;;5101617;27;20043;-63
2023/01/28 01:56:52;;;;;;;20.40;10.55;;;4.20;99.90;;;;;;5129976;27;20047;-62
2023/01/28 01:59:26;;;;;;;19.23;9.60;;;4.20;99.90;;;;;;5094514;28;20039;-63
2023/01/28 02:01:54;;;;;;;20.15;10.38;;;4.20;99.90;;;;;;5110715;28;20394;-58
2023/01/28 02:04:27;;;;;;;19.15;9.23;;;4.20;99.90;;;;;;5115270;27;20525;-62
2023/01/28 02:06:58;;;;;;;18.42;9.20;;;4.20;99.90;;;;;;5110682;28;20505;-63
2023/01/28 02:09:35;;;;;;;18.30;8.93;;;4.10;99.90;;;;;;5112255;28;20043;-62
2023/01/28 02:12:07;;;;;;;16.88;8.93;;;4.20;99.90;;;;;;5110802;27;20054;-58
2023/01/28 02:14:40;;;;;;;16.42;8.43;;;4.10;99.90;;;;;;5082786;28;20036;-59
2023/01/28 02:17:08;;;;;;;17.67;9.00;;;;;;;;;;5112507;28;20048;-61
2023/01/28 02:19:57;;;;;;;15.60;8.18;;;4.10;99.90;;;;;;5093483;28;20500;-60
2023/01/28 02:22:42;;;;;;;17.65;7.90;;;4.10;99.90;;;;;;5112071;28;20512;-59
2023/01/28 02:25:41;;;;;;;19.65;9.68;;;4.20;99.90;;;;;;5093714;28;20039;-60
2023/01/28 02:28:09;;;;;;;16.60;7.53;;;4.20;99.90;;;;;;5092426;28;20049;-59
2023/01/28 02:30:42;;;;;;;20.88;10.05;;;4.10;99.90;;;;;;5090001;28;20063;-59
2023/01/28 02:33:21;;;;;;;17.15;7.82;;;4.10;99.90;;;;;;5101626;28;20056;-59
2023/01/28 02:35:52;;;;;;;14.70;7.47;;;4.10;99.90;;;;;;5095371;28;20043;-59
2023/01/28 02:38:32;;;;;;;14.77;7.60;;;4.20;99.90;;;;;;5103427;27;20050;-59
2023/01/28 02:41:22;;;;;;;16.35;7.78;;;4.20;99.90;;;;;;5133964;27;20587;-58
2023/01/28 02:43:50;;;;;;;18.67;8.57;;;4.10;99.90;;;;;;5084030;28;20052;-58
2023/01/28 02:49:40;;;;;;;15.18;7.93;;;4.10;99.90;;;;;;5085741;28;20046;-63
2023/01/28 02:55:38;;;;;;;18.02;7.55;;;4.10;99.90;;;;;;5094920;28;20050;-62
2023/01/28 02:58:19;;;;;;;15.00;7.40;;;4.10;99.90;;;;;;5111347;28;20051;-61
2023/01/28 03:01:11;;;;;;;11.63;7.03;;;4.10;99.90;;;;;;5113230;28;20042;-59
2023/01/28 03:04:00;;;;;;;13.93;7.80;;;4.00;99.90;;;;;;5113099;28;20035;-63
2023/01/28 03:06:40;;;;;;;12.90;7.13;;;4.10;99.90;;;;;;5112797;28;20058;-61
2023/01/28 03:09:25;;;;;;;18.23;8.30;;;4.10;99.90;;;;;;5094910;28;20048;-62
2023/01/28 03:39:24;;;;;;;11.35;6.63;;;3.80;99.90;;;;;;5090960;28;20059;-60
2023/01/28 03:42:00;;;;;;;15.40;7.05;;;3.80;99.90;;;;;;5094081;28;20418;-63
2023/01/28 03:47:14;;;;;;;12.60;7.35;;;3.80;99.90;;;;;;5112462;28;20497;-61
2023/01/28 03:49:49;;;;;;;13.35;6.20;;;3.80;99.90;;;;;;5094444;28;20043;-61
2023/01/28 03:52:21;;;;;;;13.55;6.88;;;3.80;99.90;;;;;;5093949;28;20043;-62
2023/01/28 03:54:51;;;;;;;;;;;3.80;99.90;;;;;;5094491;28;20040;-62
2023/01/28 03:57:22;;;;;;;11.38;6.43;;;3.90;99.90;;;;;;5093985;28;19919;-61
2023/01/28 03:59:51;;;;;;;11.35;6.15;;;3.80;99.90;;;;;;5094005;28;20040;-63
2023/01/28 04:02:21;;;;;;;12.25;6.28;;;3.90;99.90;;;;;;5093889;28;20040;-62
2023/01/28 04:04:51;;;;;;;12.82;6.90;;;3.90;99.90;;;;;;5098885;27;20043;-62
2023/01/28 04:07:19;;;;;;;10.38;5.78;;;3.90;99.90;;;;;;5114268;27;20047;-62
2023/01/28 04:10:22;;;;;;;11.75;5.95;;;3.90;99.90;;;;;;5068760;28;20045;-63
2023/01/28 04:12:56;;;;;;;9.32;5.32;;;3.90;99.90;;;;;;5101984;28;20055;-62
2023/01/28 04:15:25;;;;;;;11.75;5.95;;;3.90;99.90;;;;;;5093269;28;20390;-62
2023/01/28 04:17:54;;;;;;;9.43;5.65;;;3.90;99.90;;;;;;5093958;28;20039;-62
2023/01/28 04:20:28;;;;;;;12.57;5.95;;;3.90;99.90;;;;;;5093961;28;20039;-63
2023/01/28 04:22:59;;;;;;;11.30;5.22;;;3.90;99.90;;;;;;5093610;28;20047;-63
2023/01/28 04:25:26;;;;;;;9.98;5.13;;;4.00;99.90;;;;;;5107328;28;20063;-63
2023/01/28 04:27:54;;;;;;;9.00;4.85;;;3.90;99.90;;;;;;5110875;28;20052;-63
2023/01/28 04:30:24;;;;;;;9.95;5.90;;;3.90;99.90;;;;;;5108275;28;20044;-62
2023/01/28 04:33:05;;;;;;;11.02;5.82;;;3.90;99.90;;;;;;5093588;28;20605;-63
2023/01/28 04:35:46;;;;;;;10.70;5.50;;;4.00;99.90;;;;;;5124472;28;20047;-61
2023/01/28 04:38:42;;;;;;;9.48;5.50;;;3.90;99.90;;;;;;5111034;28;20043;-62
2023/01/28 04:41:29;;;;;;;9.20;5.07;;;3.90;99.90;;;;;;5126330;28;20046;-61
2023/01/28 04:44:03;;;;;;;11.85;5.40;;;3.90;99.90;;;;;;5093614;28;20047;-61
2023/01/28 04:46:50;;;;;;;8.85;5.18;;;3.90;99.90;;;;;;5093930;28;20054;-62
2023/01/28 04:49:40;;;;;;;10.82;5.22;;;3.90;99.90;;;;;;5096048;28;20043;-62
2023/01/28 04:52:27;;;;;;;9.60;5.22;;;3.90;99.90;;;;;;5097572;28;20398;-63
2023/01/28 04:54:54;;;;;;;10.13;5.25;;;3.90;99.90;;;;;;5114432;28;20050;-61
2023/01/28 04:57:23;;;;;;;10.93;5.20;;;4.00;99.90;;;;;;5097530;28;20571;-62
2023/01/28 04:59:51;;;;;;;10.73;5.40;;;4.00;99.90;;;;;;5096953;28;20051;-62
2023/01/28 05:02:18;;;;;;;12.55;5.93;;;4.00;99.90;;;;;;5097232;28;20051;-61
2023/01/28 05:04:47;;;;;;;8.52;5.28;;;4.00;99.90;;;;;;5101827;27;20047;-58
2023/01/28 05:07:37;;;;;;;;;;;4.00;99.90;;;;;;5118404;27;20390;-62
2023/01/28 05:10:05;;;;;;;11.95;5.78;;;4.00;99.90;;;;;;5151828;27;19919;-63
2023/01/28 05:12:33;;;;;;;13.52;5.35;;;4.00;99.90;;;;;;5115178;27;20054;-58
2023/01/28 05:15:04;;;;;;;11.38;5.38;;;4.00;99.90;;;;;;5097202;28;20046;-62
2023/01/28 05:17:31;;;;;;;11.60;5.75;;;4.00;99.90;;;;;;5097158;28;20380;-61
2023/01/28 05:19:59;;;;;;;9.80;5.05;;;4.00;99.90;;;;;;5097039;28;20051;-63
2023/01/28 05:22:28;;;;;;;8.38;4.80;;;4.00;99.90;;;;;;5096982;28;20054;-61
2023/01/28 05:25:17;;;;;;;8.73;5.18;;;4.00;99.90;;;;;;5097021;28;20390;-60
2023/01/28 05:27:52;;;;;;;10.00;4.70;;;4.00;99.90;;;;;;5096902;28;20039;-60
2023/01/28 05:30:20;;;;;;;7.35;4.38;;;4.00;99.90;;;;;;5096579;28;20047;-62
2023/01/28 05:32:48;;;;;;;8.07;4.63;;;4.00;99.90;;;;;;5096581;28;20054;-60
2023/01/28 05:35:21;;;;;;;8.63;4.65;;;4.00;99.90;;;;;;5105864;27;20046;-60
2023/01/28 05:37:49;;;;;;;7.93;4.32;;;4.00;99.90;;;;;;5135312;27;20047;-60
2023/01/28 05:40:17;;;;;;;10.27;6.03;;;4.00;99.90;;;;;;5116844;27;20043;-60
2023/01/28 05:42:48;;;;;;;6.57;4.10;;;4.00;99.90;;;;;;5118473;27;20054;-61
2023/01/28 05:45:48;;;;;;;6.93;4.07;;;4.00;99.90;;;;;;5082796;28;20055;-61
2023/01/28 05:48:51;;;;;;;9.25;3.80;;;4.00;99.90;;;;;;5097760;27;20052;-61
2023/01/28 05:51:30;;;;;;;9.35;4.43;;;4.10;99.90;;;;;;5090876;28;20052;-61
2023/01/28 05:53:59;;;;;;;7.28;4.13;;;4.10;99.90;;;;;;5085371;28;20211;-62
2023/01/28 05:56:26;;;;;;;8.52;3.78;;;4.10;99.90;;;;;;5092815;28;20043;-63
2023/01/28 05:58:54;;;;;;;7.13;3.30;;;4.10;99.90;;;;;;5092377;28;20043;-62
2023/01/28 06:01:21;;;;;;;5.20;3.55;;;4.10;99.90;;;;;;5111178;28;20049;-61
2023/01/28 06:03:53;;;;;;;3.95;2.80;;;4.10;99.90;;;;;;5088990;28;20046;-61
2023/01/28 06:06:21;;;;;;;6.00;3.30;;;4.10;99.90;;;;;;5104941;27;20387;-61
2023/01/28 06:08:48;;;;;;;6.65;3.08;;;4.10;99.90;;;;;;5092358;28;20050;-61
2023/01/28 06:11:23;;;;;;;4.82;2.78;;;4.10;99.90;;;;;;5092541;28;20058;-61
2023/01/28 06:13:56;;;;;;;10.27;3.78;;;4.10;99.90;;;;;;5090645;28;20043;-60
2023/01/28 06:16:51;;;;;;;5.35;3.80;;;4.10;99.90;;;;;;5085256;28;20062;-63
2023/01/28 06:19:24;;;;;;;7.95;3.33;;;4.10;99.90;;;;;;5073642;28;20055;-63
2023/01/28 06:21:51;;;;;;;8.43;3.60;;;4.10;99.90;;;;;;5111736;27;20051;-62
2023/01/28 06:24:20;;;;;;;7.68;3.78;;;4.00;99.90;;;;;;5090877;28;20047;-61
2023/01/28 06:26:48;;;;;;;7.35;3.88;;;4.10;99.90;;;;;;5108195;27;20509;-59
2023/01/28 06:29:15;;;;;;;8.18;3.70;;;4.10;99.90;;;;;;5089160;28;20418;-59
2023/01/28 06:31:43;;;;;;;9.20;3.33;;;4.10;99.90;;;;;;5108221;28;20510;-59
2023/01/28 06:34:14;;;;;;;6.30;3.53;;;4.10;99.90;;;;;;5100613;27;20056;-62
2023/01/28 06:36:42;;;;;;;6.93;3.55;;;4.10;99.90;;;;;;5108451;28;20040;-59
2023/01/28 06:39:09;;;;;;;6.28;3.72;;;4.10;99.90;;;;;;5108040;28;20036;-59
2023/01/28 06:41:37;;;;;;;10.20;2.97;;;4.10;99.90;;;;;;5109741;28;20043;-62
2023/01/28 06:44:05;;;;;;;9.27;3.85;;;4.00;99.90;;;;;;5093384;28;20044;-63
2023/01/28 06:46:32;;;;;;;9.10;3.83;;;4.00;99.90;;;;;;5110216;28;20058;-59
2023/01/28 06:49:00;;;;;;;6.03;3.83;;;4.00;99.90;;;;;;5100380;27;20059;-61
2023/01/28 06:51:28;;;;;;;7.72;3.63;;;4.10;99.90;;;;;;5109446;27;20046;-63
2023/01/28 06:53:55;;;;;;;9.05;3.10;;;4.00;99.90;;;;;;5111509;28;20044;-61
2023/01/28 06:56:23;;;;;;;7.88;3.42;;;4.00;99.90;;;;;;5111401;28;20402;-63
2023/01/28 06:58:51;;;;;;;10.10;3.58;;;4.00;99.90;;;;;;5111478;28;20052;-63
2023/01/28 07:01:18;;;;;;;8.65;3.60;;;4.00;99.90;;;;;;5109574;28;20044;-62
2023/01/28 07:03:46;;;;;;;9.85;4.20;;;4.00;99.90;;;;;;5099927;27;20044;-64
2023/01/28 07:06:13;;;;;;;6.55;3.25;;;4.00;99.90;;;;;;5121628;27;20042;-59
2023/01/28 07:08:44;;;;;;;8.98;3.78;;;4.00;99.90;;;;;;5118190;27;20044;-59
2023/01/28 07:11:12;;;;;;;8.32;3.35;;;4.00;99.90;;;;;;5111206;28;20047;-59
2023/01/28 07:13:39;;;;;;;5.78;3.35;;;4.00;99.90;;;;;;5107659;28;20040;-57
2023/01/28 07:16:07;;;;;;;7.28;3.55;;;4.00;99.90;;;;;;5108071;28;20052;-59
2023/01/28 07:18:35;;;;;;;10.10;3.70;;;4.00;99.90;;;;;;5104456;28;20044;-63
2023/01/28 07:21:03;;;;;;;10.73;3.28;;;4.00;99.90;;;;;;5090930;28;20063;-63
2023/01/28 07:23:30;;;;;;;15.07;4.93;;;4.00;99.90;;;;;;5093047;28;20050;-63
2023/01/28 07:26:02;;;;;;;11.00;3.20;;;4.00;99.90;;;;;;5110797;28;20051;-63
2023/01/28 07:28:30;;;;;;;8.23;4.00;;;4.00;99.90;;;;;;5113115;27;20055;-64
2023/01/28 07:30:58;;;;;;;5.75;3.78;;;3.90;99.90;;;;;;5109954;28;20048;-61
2023/01/28 07:33:26;;;;;;;11.77;3.78;;;3.90;99.90;;;;;;5095642;28;20039;-61
2023/01/28 07:35:53;;;;;;;8.02;3.85;;;3.90;99.90;;;;;;5115142;27;20498;-58
2023/01/28 07:38:21;;;;;;;8.90;3.88;;;4.00;99.90;;;;;;5112741;27;20500;-58
2023/01/28 07:40:49;;;;;;;13.70;3.55;;;3.90;99.90;;;;;;5130977;27;20054;-58
2023/01/28 07:43:16;;;;;;;9.77;4.20;;;4.00;99.90;;;;;;5110530;28;20098;-58
2023/01/28 07:45:48;;;;;;;13.50;4.53;;;4.00;99.90;;;;;;5092646;28;20073;-58
2023/01/28 07:48:17;;;;;;;17.15;6.93;;;4.00;99.90;;;;;;5091726;28;20435;-62
2023/01/28 07:50:47;;;;;;;25.30;9.38;;;4.00;99.90;;;;;;5090249;28;20036;-58
2023/01/28 07:53:15;;;;;;;31.25;10.15;;;3.90;99.90;;;;;;5108738;28;20047;-58
2023/01/28 07:55:48;;;;;;;19.95;8.05;;;3.90;99.90;;;;;;5092844;28;20039;-59
2023/01/28 07:58:16;;;;;;;13.18;6.00;;;3.90;99.90;;;;;;5119370;27;20054;-60
2023/01/28 08:00:43;;;;;;;14.82;6.10;;;4.00;99.90;;;;;;5112237;27;20057;-59
2023/01/28 08:03:14;;;;;;;14.68;6.07;;;3.90;99.90;;;;;;5120128;27;20069;-60
2023/01/28 08:05:47;;;;;;;13.07;5.95;;;3.90;99.90;;;;;;5093737;27;20039;-62
2023/01/28 08:08:15;;;;;;;18.65;5.60;;;3.90;99.90;;;;;;5130185;27;20047;-62
2023/01/28 08:10:44;;;;;;;12.60;5.80;;;3.90;99.90;;;;;;5130704;27;20117;-61
2023/01/28 08:13:13;;;;;;;10.90;5.85;;;3.90;99.90;;;;;;5112071;27;20039;-59
2023/01/28 08:15:41;;;;;;;14.45;5.82;;;3.90;99.90;;;;;;5110285;28;20517;-62
2023/01/28 08:18:12;;;;;;;16.15;6.32;;;3.90;99.90;;;;;;5100335;28;20195;-59
2023/01/28 08:20:42;;;;;;;14.63;6.55;;;4.00;99.90;;;;;;5092903;28;20047;-60
2023/01/28 08:23:17;;;;;;;11.82;6.43;;;4.00;99.90;;;;;;5106834;28;20047;-59
2023/01/28 08:25:46;;;;;;;15.15;7.25;;;4.00;99.90;;;;;;5109759;28;20059;-59
2023/01/28 08:28:15;;;;;;;20.17;8.13;;;4.00;99.90;;;;;;5114222;28;20043;-61
2023/01/28 08:30:43;;;;;;;;;;;3.90;99.90;;;;;;5114694;28;20506;-60
2023/01/28 08:33:13;;;;;;;12.05;6.82;;;4.00;99.90;;;;;;5113664;28;19924;-60
2023/01/28 08:35:40;;;;;;;;;;;4.00;99.90;;;;;;5120677;27;20043;-57
2023/01/28 08:38:10;;;;;;;14.88;6.00;;;4.10;99.90;;;;;;5126136;27;19919;-58
2023/01/28 08:40:38;;;;;;;;;;;4.10;99.90;;;;;;5096291;28;20054;-59
2023/01/28 08:43:06;;;;;;;13.60;5.40;;;4.10;99.90;;;;;;5095890;28;19930;-58
2023/01/28 08:45:34;;;;;;;12.23;5.30;;;4.10;99.90;;;;;;5113939;28;20513;-58
2023/01/28 08:48:06;;;;;;;19.00;6.35;;;4.10;99.90;;;;;;5121454;27;20058;-57
2023/01/28 08:50:36;;;;;;;14.32;5.82;;;4.10;99.90;;;;;;5102361;27;20048;-59
2023/01/28 08:53:08;;;;;;;22.23;7.10;;;4.10;99.90;;;;;;5110088;28;20051;-56
2023/01/28 08:55:36;;;;;;;14.88;5.90;;;4.10;99.90;;;;;;5113740;28;20044;-58
2023/01/28 08:58:06;;;;;;;17.30;7.65;;;4.20;99.90;;;;;;5121194;27;20043;-57
2023/01/28 09:00:34;;;;;;;18.48;7.03;;;4.20;99.90;;;;;;5134078;27;20035;-58
2023/01/28 09:03:02;;;;;;;21.42;7.95;;;4.20;99.90;;;;;;5117937;27;20046;-58
2023/01/28 09:05:36;;;;;;;22.70;7.15;;;4.30;99.90;;;;;;5111926;27;20486;-61
2023/01/28 09:08:06;;;;;;;20.58;6.93;;;4.30;99.90;;;;;;5121108;27;20043;-62
2023/01/28 09:10:36;;;;;;;20.38;7.50;;;4.30;99.90;;;;;;5134198;27;20056;-61
2023/01/28 09:13:07;;;;;;;25.27;8.13;;;4.30;99.90;;;;;;5127561;27;20035;-63
2023/01/28 09:15:36;;;;;;;14.73;6.45;;;4.40;99.90;;;;;;5134092;27;20047;-61
2023/01/28 09:18:04;;;;;;;38.60;8.73;;;4.40;99.90;;;;;;5126283;27;20047;-62
2023/01/28 09:20:32;;;;;;;25.98;8.32;;;4.30;99.90;;;;;;5100006;28;20048;-59
2023/01/28 09:23:00;;;;;;;21.73;6.57;;;4.40;99.90;;;;;;5108544;28;20592;-59
2023/01/28 09:25:29;;;;;;;21.08;6.40;;;4.40;99.90;;;;;;5112535;28;20055;-59
2023/01/28 09:27:57;;;;;;;19.63;6.82;;;4.40;99.90;;;;;;5119812;27;20475;-62
2023/01/28 09:30:25;;;;;;;23.30;7.82;;;4.50;99.90;;;;;;5122304;27;20398;-63
2023/01/28 09:32:54;;;;;;;35.55;7.28;;;4.50;99.90;;;;;;5113028;28;20051;-63
2023/01/28 09:35:22;;;;;;;14.77;7.15;;;4.50;99.90;;;;;;5121066;27;20047;-63
2023/01/28 09:37:50;;;;;;;12.35;6.20;;;4.50;99.90;;;;;;5133425;27;20043;-64
2023/01/28 09:40:28;;;;;;;20.58;7.40;;;4.50;99.90;;;;;;5133406;27;20047;-63
2023/01/28 09:43:00;;;;;;;25.55;8.27;;;4.50;99.90;;;;;;5115483;27;20048;-64
2023/01/28 09:45:41;;;;;;;19.42;8.40;;;4.50;99.90;;;;;;5112832;28;20586;-63
2023/01/28 09:48:16;;;;;;;23.65;11.20;;;4.50;99.90;;;;;;5120827;27;20043;-63
2023/01/28 09:50:51;;;;;;;27.45;10.70;;;4.60;99.90;;;;;;5107173;27;20059;-64
2023/01/28 09:53:34;;;;;;;29.70;11.40;;;4.60;99.90;;;;;;5110002;28;20052;-63
2023/01/28 09:56:07;;;;;;;47.38;12.40;;;4.60;99.90;;;;;;5112925;28;20043;-62
2023/01/28 09:58:34;;;;;;;33.83;11.80;;;4.60;99.90;;;;;;5124184;27;20346;-62
2023/01/28 10:01:14;;;;;;;43.25;12.77;;;4.60;99.90;;;;;;5133231;27;20051;-62
2023/01/28 10:04:00;;;;;;;65.60;14.52;;;4.70;99.90;;;;;;5107192;28;20048;-61
2023/01/28 10:06:49;;;;;;;29.92;12.10;;;4.60;99.90;;;;;;5094420;28;20052;-63
2023/01/28 10:10:00;;;;;;;36.33;13.50;;;4.70;99.90;;;;;;5127107;27;20039;-60
2023/01/28 10:12:31;;;;;;;28.27;12.73;;;4.70;99.90;;;;;;5122038;27;20040;-59
2023/01/28 10:15:36;;;;;;;30.08;12.18;;;4.70;99.90;;;;;;5112173;28;20039;-61
2023/01/28 10:18:09;;;;;;;26.92;12.40;;;4.80;99.90;;;;;;5100788;27;20133;-58
2023/01/28 10:20:51;;;;;;;31.85;13.07;;;4.80;99.90;;;;;;5110508;27;20043;-58
2023/01/28 10:23:26;;;;;;;39.25;13.25;;;4.80;99.90;;;;;;5109106;28;20040;-62
2023/01/28 10:25:58;;;;;;;35.70;12.40;;;4.80;99.90;;;;;;5111986;28;20052;-62
2023/01/28 10:28:29;;;;;;;35.88;14.30;;;4.90;99.90;;;;;;5121813;27;20381;-60
2023/01/28 10:30:57;;;;;;;55.22;18.70;;;4.90;99.90;;;;;;5132591;27;20062;-58
2023/01/28 10:33:34;;;;;;;39.95;16.77;;;4.90;99.90;;;;;;5096023;28;20419;-58
2023/01/28 10:36:02;;;;;;;43.90;15.82;;;5.00;99.90;;;;;;5101129;27;20052;-57
2023/01/28 10:38:30;;;;;;;44.17;14.75;;;5.00;99.90;;;;;;5102018;28;20053;-58
2023/01/28 10:41:02;;;;;;;47.97;16.55;;;5.00;99.90;;;;;;5111492;28;20043;-59
2023/01/28 10:43:32;;;;;;;41.53;15.32;;;5.10;99.90;;;;;;5124395;27;20054;-58
2023/01/28 10:46:00;;;;;;;41.80;13.55;;;5.00;99.90;;;;;;5132135;27;20047;-57
2023/01/28 10:48:46;;;;;;;41.60;13.15;;;5.10;99.90;;;;;;5098318;27;20051;-58
2023/01/28 10:51:14;;;;;;;40.95;11.55;;;5.10;99.90;;;;;;5091830;27;20044;-58
2023/01/28 10:53:44;;;;;;;35.22;13.35;;;5.10;99.90;;;;;;5110920;28;20058;-61
2023/01/28 10:56:25;;;;;;;32.53;12.95;;;5.10;99.90;;;;;;5089412;28;20040;-57
2023/01/28 10:58:59;;;;;;;32.88;13.05;;;5.10;99.90;;;;;;5114682;27;20051;-58
2023/01/28 11:02:04;;;;;;;38.88;14.45;;;5.10;99.90;;;;;;5091808;28;20051;-59
2023/01/28 11:04:33;;;;;;;47.28;14.30;;;5.10;99.90;;;;;;5071822;27;20052;-58
2023/01/28 11:07:20;;;;;;;34.47;13.23;;;5.10;99.90;;;;;;5094489;27;20047;-57
2023/01/28 11:09:50;;;;;;;36.58;12.63;;;5.20;99.90;;;;;;5090955;28;20036;-57
2023/01/28 11:12:26;;;;;;;44.58;12.65;;;5.20;99.90;;;;;;5097295;28;20406;-58
2023/01/28 11:14:59;;;;;;;38.20;12.45;;;5.30;99.90;;;;;;5111101;28;20051;-59
2023/01/28 11:17:30;;;;;;;30.92;10.93;;;5.30;99.90;;;;;;5099966;28;20047;-59
2023/01/28 11:20:07;;;;;;;32.83;12.02;;;5.30;99.90;;;;;;5092841;27;20043;-60
2023/01/28 11:22:38;;;;;;;31.67;10.40;;;5.30;99.90;;;;;;5102430;28;20059;-63
2023/01/28 11:25:43;;;;;;;31.25;11.60;;;5.30;99.90;;;;;;5111070;28;20035;-61
2023/01/28 11:28:20;;;;;;;29.70;10.90;;;5.40;99.90;;;;;;5100465;27;20054;-60
2023/01/28 11:30:51;;;;;;;29.60;9.90;;;5.40;99.90;;;;;;5131245;27;20047;-59
2023/01/28 11:33:36;;;;;;;27.13;9.32;;;5.40;99.90;;;;;;5114890;27;20497;-58
2023/01/28 11:36:05;;;;;;;32.13;9.75;;;5.40;99.90;;;;;;5109069;27;20044;-57
2023/01/28 11:38:57;;;;;;;31.27;10.55;;;5.50;99.90;;;;;;5113243;27;20087;-60
2023/01/28 11:41:30;;;;;;;31.33;10.38;;;5.50;99.90;;;;;;5125628;27;20517;-59
2023/01/28 11:43:59;;;;;;;28.35;10.32;;;5.50;99.90;;;;;;5110470;28;20051;-63
2023/01/28 11:46:59;;;;;;;31.10;11.18;;;5.50;99.90;;;;;;5110537;28;20043;-63
2023/01/28 11:49:45;;;;;;;27.98;10.40;;;5.50;99.90;;;;;;5128900;27;20055;-62
2023/01/28 11:52:41;;;;;;;20.90;9.32;;;5.50;99.90;;;;;;5103048;27;20048;-60
2023/01/28 11:56:07;;;;;;;21.63;8.73;;;5.60;99.90;;;;;;5092167;28;20043;-60
2023/01/28 11:59:07;;;;;;;20.35;9.73;;;5.50;99.90;;;;;;5121005;27;20039;-63
2023/01/28 12:01:43;;;;;;;19.17;9.55;;;5.60;99.90;;;;;;5129727;27;20053;-60
2023/01/28 12:04:39;;;;;;;21.88;9.40;;;5.60;99.90;;;;;;5110406;28;20406;-62
2023/01/28 12:07:21;;;;;;;23.40;10.27;;;5.60;99.90;;;;;;5077496;28;20044;-61
2023/01/28 12:09:55;;;;;;;25.00;9.80;;;5.70;99.90;;;;;;5105986;28;20372;-62
2023/01/28 12:12:41;;;;;;;27.02;9.75;;;5.70;99.90;;;;;;5097294;28;20063;-61
2023/01/28 12:15:18;;;;;;;21.65;11.20;;;5.70;99.90;;;;;;5110150;28;20058;-62
2023/01/28 12:17:57;;;;;;;21.25;9.75;;;5.70;99.90;;;;;;5109577;28;20196;-62
2023/01/28 12:20:31;;;;;;;26.17;10.65;;;5.70;99.90;;;;;;5109983;28;20043;-61
2023/01/28 12:23:04;;;;;;;24.58;11.48;;;5.60;99.90;;;;;;5102162;28;20055;-63
2023/01/28 12:25:46;;;;;;;26.08;10.35;;;5.80;99.90;;;;;;5110030;28;20059;-61
2023/01/28 12:28:17;;;;;;;23.27;10.65;;;5.70;99.90;;;;;;5098739;28;20055;-62
2023/01/28 12:31:21;;;;;;;23.60;10.30;;;5.80;99.90;;;;;;5093102;28;20063;-62
2023/01/28 12:34:27;;;;;;;25.75;10.43;;;5.80;99.90;;;;;;5110196;28;20051;-63
2023/01/28 12:37:29;;;;;;;32.38;10.30;;;5.80;99.90;;;;;;5088212;28;20059;-63
2023/01/28 12:40:12;;;;;;;25.23;11.20;;;5.80;99.90;;;;;;5089636;28;20055;-62
2023/01/28 12:42:55;;;;;;;30.23;11.60;;;5.90;99.90;;;;;;5110241;28;20046;-62
2023/01/28 12:45:30;;;;;;;29.08;13.40;;;5.90;99.90;;;;;;5130590;28;20047;-63
2023/01/28 12:48:06;;;;;;;30.88;12.52;;;5.90;99.90;;;;;;5124649;28;20405;-63
2023/01/28 12:50:44;;;;;;;27.10;12.73;;;5.90;99.90;;;;;;5110187;28;20062;-61
2023/01/28 12:53:45;;;;;;;37.30;15.25;;;5.90;99.90;;;;;;5103351;28;20047;-61
2023/01/28 12:56:20;;;;;;;36.63;12.77;;;5.90;99.90;;;;;;5109710;28;20055;-62
2023/01/28 12:58:57;;;;;;;24.98;12.20;;;5.90;99.90;;;;;;5091448;28;20054;-56
2023/01/28 13:01:34;;;;;;;26.52;12.55;;;5.90;99.90;;;;;;5109144;28;20052;-59
2023/01/28 13:04:09;;;;;;;26.17;12.60;;;5.90;99.90;;;;;;5106094;28;20517;-59
2023/01/28 13:06:54;;;;;;;26.80;11.82;;;6.00;99.90;;;;;;5114981;28;20067;-56
2023/01/28 13:09:25;;;;;;;22.42;11.68;;;6.00;99.90;;;;;;5106410;28;20360;-58
2023/01/28 13:11:58;;;;;;;26.02;12.77;;;6.00;99.90;;;;;;5111895;28;20510;-62
2023/01/28 13:14:31;;;;;;;35.72;13.75;;;6.00;99.90;;;;;;5113244;27;20040;-62
2023/01/28 13:17:23;;;;;;;32.92;13.98;;;6.00;99.90;;;;;;5113473;28;20048;-62
2023/01/28 13:19:50;;;;;;;25.05;13.05;;;6.10;99.90;;;;;;5093230;28;20055;-60
2023/01/28 13:22:28;;;;;;;33.65;14.02;;;6.20;99.90;;;;;;5099263;28;20647;-61
2023/01/28 13:25:10;;;;;;;37.05;13.65;;;6.20;99.90;;;;;;5079954;28;20051;-62
2023/01/28 13:27:38;;;;;;;33.35;12.27;;;6.30;99.90;;;;;;5113262;28;20039;-57
2023/01/28 13:30:48;;;;;;;30.13;13.90;;;6.30;99.90;;;;;;5113305;28;20051;-62
2023/01/28 13:33:26;;;;;;;;;;;6.40;99.90;;;;;;5065755;28;20047;-60
2023/01/28 13:35:54;;;;;;;30.23;12.80;;;6.40;99.90;;;;;;5112947;28;19930;-62
2023/01/28 13:38:23;;;;;;;38.30;14.48;;;6.30;99.90;;;;;;5111079;27;20060;-62
2023/01/28 13:40:56;;;;;;;40.15;16.17;;;6.30;99.90;;;;;;5133244;27;20043;-62
2023/01/28 13:43:37;;;;;;;40.50;17.60;;;6.30;99.90;;;;;;5112795;28;20483;-61
2023/01/28 13:46:25;;;;;;;44.53;20.05;;;6.30;99.90;;;;;;5094808;28;20505;-62
2023/01/28 13:48:56;;;;;;;43.85;19.35;;;6.40;99.90;;;;;;5112899;28;20494;-62
2023/01/28 13:51:30;;;;;;;53.55;19.95;;;6.40;99.90;;;;;;5110720;27;20054;-62
2023/01/28 13:54:11;;;;;;;62.47;22.75;;;6.40;99.90;;;;;;5111559;28;20051;-62
2023/01/28 13:56:54;;;;;;;61.67;23.02;;;6.40;99.90;;;;;;5112962;28;20054;-63
2023/01/28 13:59:40;;;;;;;52.72;21.63;;;6.50;99.90;;;;;;5094299;28;20047;-59